sensor_id;sensor_type;location;lat;lon;timestamp;temperature;humidity
37642;DHT22;23486;51.956;5.888;2023-08-07T00:00:33;13.10;99.90
37642;DHT22;23486;51.956;5.888;2023-08-07T00:02:59;13.10;99.90
37642;DHT22;23486;51.956;5.888;2023-08-07T00:05:24;13.20;99.90
37642;DHT22;23486;51.956;5.888;2023-08-07T00:07:51;13.10;99.90
37642;DHT22;23486;51.956;5.888;2023-08-07T00:10:16;13.10;99.90
37642;DHT22;23486;51.956;5.888;2023-08-07T00:12:42;13.10;99.90
37642;DHT22;23486;51.956;5.888;2023-08-07T00:15:09;13.10;99.90
37642;DHT22;23486;51.956;5.888;2023-08-07T00:17:35;13.10;99.90
37642;DHT22;23486;51.956;5.888;2023-08-07T00:20:01;13.10;99.90
37642;DHT22;23486;51.956;5.888;2023-08-07T00:22:26;13.10;99.90
37642;DHT22;23486;51.956;5.888;2023-08-07T00:24:52;13.00;99.90
37642;DHT22;23486;51.956;5.888;2023-08-07T00:27:18;13.00;99.90
37642;DHT22;23486;51.956;5.888;2023-08-07T00:29:43;13.00;99.90
37642;DHT22;23486;51.956;5.888;2023-08-07T00:32:09;13.00;99.90
37642;DHT22;23486;51.956;5.888;2023-08-07T00:34:34;13.00;99.90
37642;DHT22;23486;51.956;5.888;2023-08-07T00:37:00;13.00;99.90
37642;DHT22;23486;51.956;5.888;2023-08-07T00:39:26;13.00;99.90
37642;DHT22;23486;51.956;5.888;2023-08-07T00:41:51;13.00;99.90
37642;DHT22;23486;51.956;5.888;2023-08-07T00:44:17;13.00;99.90
37642;DHT22;23486;51.956;5.888;2023-08-07T00:46:43;13.00;99.90
37642;DHT22;23486;51.956;5.888;2023-08-07T00:49:09;13.10;99.90
37642;DHT22;23486;51.956;5.888;2023-08-07T00:51:37;13.00;99.90
37642;DHT22;23486;51.956;5.888;2023-08-07T00:54:04;13.00;99.90
37642;DHT22;23486;51.956;5.888;2023-08-07T00:56:30;13.00;99.90
37642;DHT22;23486;51.956;5.888;2023-08-07T00:59:00;13.00;99.90
37642;DHT22;23486;51.956;5.888;2023-08-07T01:01:26;13.00;99.90
37642;DHT22;23486;51.956;5.888;2023-08-07T01:03:52;12.90;99.90
37642;DHT22;23486;51.956;5.888;2023-08-07T01:06:17;13.00;99.90
37642;DHT22;23486;51.956;5.888;2023-08-07T01:08:44;12.90;99.90
37642;DHT22;23486;51.956;5.888;2023-08-07T01:17:00;12.90;99.90
37642;DHT22;23486;51.956;5.888;2023-08-07T01:19:28;12.90;99.90
37642;DHT22;23486;51.956;5.888;2023-08-07T01:22:14;12.90;99.90
37642;DHT22;23486;51.956;5.888;2023-08-07T01:24:43;12.90;99.90
37642;DHT22;23486;51.956;5.888;2023-08-07T01:35:02;12.90;99.90
37642;DHT22;23486;51.956;5.888;2023-08-07T01:37:30;12.80;99.90
37642;DHT22;23486;51.956;5.888;2023-08-07T01:39:58;12.80;99.90
37642;DHT22;23486;51.956;5.888;2023-08-07T01:42:26;12.90;99.90
37642;DHT22;23486;51.956;5.888;2023-08-07T01:44:51;12.90;99.90
37642;DHT22;23486;51.956;5.888;2023-08-07T01:47:18;12.90;99.90
37642;DHT22;23486;51.956;5.888;2023-08-07T01:49:43;12.90;99.90
37642;DHT22;23486;51.956;5.888;2023-08-07T01:52:09;12.90;99.90
37642;DHT22;23486;51.956;5.888;2023-08-07T01:54:35;12.90;99.90
37642;DHT22;23486;51.956;5.888;2023-08-07T01:57:00;12.90;99.90
37642;DHT22;23486;51.956;5.888;2023-08-07T01:59:26;12.90;99.90
37642;DHT22;23486;51.956;5.888;2023-08-07T02:01:51;12.90;99.90
37642;DHT22;23486;51.956;5.888;2023-08-07T02:04:17;12.90;99.90
37642;DHT22;23486;51.956;5.888;2023-08-07T02:06:42;12.90;99.90
37642;DHT22;23486;51.956;5.888;2023-08-07T02:09:08;13.00;99.90
37642;DHT22;23486;51.956;5.888;2023-08-07T02:11:34;13.00;99.90
37642;DHT22;23486;51.956;5.888;2023-08-07T02:13:59;13.00;99.90
37642;DHT22;23486;51.956;5.888;2023-08-07T02:16:25;13.00;99.90
37642;DHT22;23486;51.956;5.888;2023-08-07T02:18:50;13.00;99.90
37642;DHT22;23486;51.956;5.888;2023-08-07T02:21:16;13.00;99.90
37642;DHT22;23486;51.956;5.888;2023-08-07T02:23:42;13.00;99.90
37642;DHT22;23486;51.956;5.888;2023-08-07T02:26:07;13.00;99.90
37642;DHT22;23486;51.956;5.888;2023-08-07T02:28:33;13.00;99.90
37642;DHT22;23486;51.956;5.888;2023-08-07T02:30:59;13.00;99.90
37642;DHT22;23486;51.956;5.888;2023-08-07T02:33:25;13.00;99.90
37642;DHT22;23486;51.956;5.888;2023-08-07T02:35:50;13.00;99.90
37642;DHT22;23486;51.956;5.888;2023-08-07T02:38:16;13.00;99.90
37642;DHT22;23486;51.956;5.888;2023-08-07T02:40:43;13.00;99.90
37642;DHT22;23486;51.956;5.888;2023-08-07T02:43:09;13.00;99.90
37642;DHT22;23486;51.956;5.888;2023-08-07T02:45:34;13.00;99.90
37642;DHT22;23486;51.956;5.888;2023-08-07T02:48:00;13.00;99.90
37642;DHT22;23486;51.956;5.888;2023-08-07T02:50:26;13.00;99.90
37642;DHT22;23486;51.956;5.888;2023-08-07T02:52:53;13.00;99.90
37642;DHT22;23486;51.956;5.888;2023-08-07T02:55:18;13.00;99.90
37642;DHT22;23486;51.956;5.888;2023-08-07T02:57:44;13.00;99.90
37642;DHT22;23486;51.956;5.888;2023-08-07T03:00:10;12.90;99.90
37642;DHT22;23486;51.956;5.888;2023-08-07T03:02:36;13.00;99.90
37642;DHT22;23486;51.956;5.888;2023-08-07T03:05:02;12.90;99.90
37642;DHT22;23486;51.956;5.888;2023-08-07T03:07:29;12.90;99.90
37642;DHT22;23486;51.956;5.888;2023-08-07T03:09:55;13.00;99.90
37642;DHT22;23486;51.956;5.888;2023-08-07T03:12:20;12.90;99.90
37642;DHT22;23486;51.956;5.888;2023-08-07T03:14:46;12.90;99.90
37642;DHT22;23486;51.956;5.888;2023-08-07T03:17:12;12.90;99.90
37642;DHT22;23486;51.956;5.888;2023-08-07T03:19:41;13.00;99.90
37642;DHT22;23486;51.956;5.888;2023-08-07T03:22:07;13.00;99.90
37642;DHT22;23486;51.956;5.888;2023-08-07T03:24:33;12.90;99.90
37642;DHT22;23486;51.956;5.888;2023-08-07T03:26:58;13.00;99.90
37642;DHT22;23486;51.956;5.888;2023-08-07T03:29:24;12.90;99.90
37642;DHT22;23486;51.956;5.888;2023-08-07T03:31:49;13.00;99.90
37642;DHT22;23486;51.956;5.888;2023-08-07T03:34:15;12.90;99.90
37642;DHT22;23486;51.956;5.888;2023-08-07T03:36:40;12.90;99.90
37642;DHT22;23486;51.956;5.888;2023-08-07T03:39:06;12.90;99.90
37642;DHT22;23486;51.956;5.888;2023-08-07T03:41:32;12.90;99.90
37642;DHT22;23486;51.956;5.888;2023-08-07T03:43:57;12.90;99.90
37642;DHT22;23486;51.956;5.888;2023-08-07T03:46:23;12.90;99.90
37642;DHT22;23486;51.956;5.888;2023-08-07T03:48:49;12.90;99.90
37642;DHT22;23486;51.956;5.888;2023-08-07T03:51:14;12.90;99.90
37642;DHT22;23486;51.956;5.888;2023-08-07T03:53:42;12.90;99.90
37642;DHT22;23486;51.956;5.888;2023-08-07T03:56:08;12.90;99.90
37642;DHT22;23486;51.956;5.888;2023-08-07T03:58:33;12.90;99.90
37642;DHT22;23486;51.956;5.888;2023-08-07T04:00:59;12.90;99.90
37642;DHT22;23486;51.956;5.888;2023-08-07T04:03:25;12.90;99.90
37642;DHT22;23486;51.956;5.888;2023-08-07T04:05:54;12.90;99.90
37642;DHT22;23486;51.956;5.888;2023-08-07T04:08:21;12.90;99.90
37642;DHT22;23486;51.956;5.888;2023-08-07T04:11:04;12.90;99.90
37642;DHT22;23486;51.956;5.888;2023-08-07T04:13:30;13.00;99.90
37642;DHT22;23486;51.956;5.888;2023-08-07T04:15:57;13.00;99.90
37642;DHT22;23486;51.956;5.888;2023-08-07T04:18:23;13.00;99.90
37642;DHT22;23486;51.956;5.888;2023-08-07T04:20:50;13.00;99.90
37642;DHT22;23486;51.956;5.888;2023-08-07T04:23:16;13.00;99.90
37642;DHT22;23486;51.956;5.888;2023-08-07T04:25:41;13.00;99.90
37642;DHT22;23486;51.956;5.888;2023-08-07T04:28:07;13.00;99.90
37642;DHT22;23486;51.956;5.888;2023-08-07T04:30:32;13.00;99.90
37642;DHT22;23486;51.956;5.888;2023-08-07T04:32:58;13.00;99.90
37642;DHT22;23486;51.956;5.888;2023-08-07T04:35:23;13.00;99.90
37642;DHT22;23486;51.956;5.888;2023-08-07T04:37:49;13.00;99.90
37642;DHT22;23486;51.956;5.888;2023-08-07T04:40:15;13.00;99.90
37642;DHT22;23486;51.956;5.888;2023-08-07T04:42:40;13.00;99.90
37642;DHT22;23486;51.956;5.888;2023-08-07T04:45:07;13.00;99.90
37642;DHT22;23486;51.956;5.888;2023-08-07T04:47:33;13.00;99.90
37642;DHT22;23486;51.956;5.888;2023-08-07T04:49:58;13.00;99.90
37642;DHT22;23486;51.956;5.888;2023-08-07T04:52:24;13.00;99.90
37642;DHT22;23486;51.956;5.888;2023-08-07T04:54:51;13.00;99.90
37642;DHT22;23486;51.956;5.888;2023-08-07T04:57:16;13.00;99.90
37642;DHT22;23486;51.956;5.888;2023-08-07T04:59:42;13.10;99.90
37642;DHT22;23486;51.956;5.888;2023-08-07T05:02:07;13.10;99.90
37642;DHT22;23486;51.956;5.888;2023-08-07T05:04:33;13.10;99.90
37642;DHT22;23486;51.956;5.888;2023-08-07T05:06:58;13.10;99.90
37642;DHT22;23486;51.956;5.888;2023-08-07T05:09:24;13.10;99.90
37642;DHT22;23486;51.956;5.888;2023-08-07T05:11:50;13.10;99.90
37642;DHT22;23486;51.956;5.888;2023-08-07T05:14:15;13.10;99.90
37642;DHT22;23486;51.956;5.888;2023-08-07T05:16:41;13.10;99.90
37642;DHT22;23486;51.956;5.888;2023-08-07T05:19:07;13.10;99.90
37642;DHT22;23486;51.956;5.888;2023-08-07T05:21:32;13.20;99.90
37642;DHT22;23486;51.956;5.888;2023-08-07T05:23:59;13.20;99.90
37642;DHT22;23486;51.956;5.888;2023-08-07T05:26:25;13.20;99.90
37642;DHT22;23486;51.956;5.888;2023-08-07T05:28:51;13.20;99.90
37642;DHT22;23486;51.956;5.888;2023-08-07T05:31:16;13.20;99.90
37642;DHT22;23486;51.956;5.888;2023-08-07T05:33:42;13.20;99.90
37642;DHT22;23486;51.956;5.888;2023-08-07T05:36:07;13.30;99.90
37642;DHT22;23486;51.956;5.888;2023-08-07T05:38:33;13.30;99.90
37642;DHT22;23486;51.956;5.888;2023-08-07T05:40:58;13.30;99.90
37642;DHT22;23486;51.956;5.888;2023-08-07T05:43:24;13.30;99.90
37642;DHT22;23486;51.956;5.888;2023-08-07T05:45:50;13.30;99.90
37642;DHT22;23486;51.956;5.888;2023-08-07T05:48:16;13.30;99.90
37642;DHT22;23486;51.956;5.888;2023-08-07T05:50:42;13.30;99.90
37642;DHT22;23486;51.956;5.888;2023-08-07T05:53:08;13.30;99.90
37642;DHT22;23486;51.956;5.888;2023-08-07T05:55:34;13.40;99.90
37642;DHT22;23486;51.956;5.888;2023-08-07T05:57:59;13.40;99.90
37642;DHT22;23486;51.956;5.888;2023-08-07T06:00:25;13.50;99.90
37642;DHT22;23486;51.956;5.888;2023-08-07T06:02:51;13.50;99.90
37642;DHT22;23486;51.956;5.888;2023-08-07T06:05:16;13.50;99.90
37642;DHT22;23486;51.956;5.888;2023-08-07T06:07:42;13.50;99.90
37642;DHT22;23486;51.956;5.888;2023-08-07T06:10:08;13.50;99.90
37642;DHT22;23486;51.956;5.888;2023-08-07T06:12:34;13.60;99.90
37642;DHT22;23486;51.956;5.888;2023-08-07T06:14:59;13.60;99.90
37642;DHT22;23486;51.956;5.888;2023-08-07T06:17:25;13.60;99.90
37642;DHT22;23486;51.956;5.888;2023-08-07T06:19:51;13.60;99.90
37642;DHT22;23486;51.956;5.888;2023-08-07T06:22:17;13.60;99.90
37642;DHT22;23486;51.956;5.888;2023-08-07T06:24:43;13.60;99.90
37642;DHT22;23486;51.956;5.888;2023-08-07T06:27:08;13.60;99.90
37642;DHT22;23486;51.956;5.888;2023-08-07T06:29:34;13.60;99.90
37642;DHT22;23486;51.956;5.888;2023-08-07T06:31:59;13.60;99.90
37642;DHT22;23486;51.956;5.888;2023-08-07T06:34:25;13.60;99.90
37642;DHT22;23486;51.956;5.888;2023-08-07T06:36:51;13.70;99.90
37642;DHT22;23486;51.956;5.888;2023-08-07T06:39:16;13.70;99.90
37642;DHT22;23486;51.956;5.888;2023-08-07T06:41:42;13.70;99.90
37642;DHT22;23486;51.956;5.888;2023-08-07T06:44:08;13.70;99.90
37642;DHT22;23486;51.956;5.888;2023-08-07T06:46:33;13.70;99.90
37642;DHT22;23486;51.956;5.888;2023-08-07T06:48:59;13.80;99.90
37642;DHT22;23486;51.956;5.888;2023-08-07T06:51:24;13.80;99.90
37642;DHT22;23486;51.956;5.888;2023-08-07T06:53:50;13.90;99.90
37642;DHT22;23486;51.956;5.888;2023-08-07T06:56:16;14.00;99.90
37642;DHT22;23486;51.956;5.888;2023-08-07T06:58:41;14.00;99.90
37642;DHT22;23486;51.956;5.888;2023-08-07T07:01:07;14.10;99.90
37642;DHT22;23486;51.956;5.888;2023-08-07T07:03:33;14.30;99.90
37642;DHT22;23486;51.956;5.888;2023-08-07T07:05:58;14.30;99.90
37642;DHT22;23486;51.956;5.888;2023-08-07T07:08:24;14.40;99.90
37642;DHT22;23486;51.956;5.888;2023-08-07T07:10:50;14.50;99.90
37642;DHT22;23486;51.956;5.888;2023-08-07T07:13:15;14.50;99.90
37642;DHT22;23486;51.956;5.888;2023-08-07T07:15:41;14.50;99.90
37642;DHT22;23486;51.956;5.888;2023-08-07T07:18:07;14.60;99.90
37642;DHT22;23486;51.956;5.888;2023-08-07T07:20:32;14.60;99.90
37642;DHT22;23486;51.956;5.888;2023-08-07T07:22:58;14.70;99.90
37642;DHT22;23486;51.956;5.888;2023-08-07T07:25:24;14.70;99.90
37642;DHT22;23486;51.956;5.888;2023-08-07T07:27:52;14.80;99.90
37642;DHT22;23486;51.956;5.888;2023-08-07T07:30:18;14.80;99.90
37642;DHT22;23486;51.956;5.888;2023-08-07T07:32:43;14.80;99.90
37642;DHT22;23486;51.956;5.888;2023-08-07T07:35:09;14.80;99.90
37642;DHT22;23486;51.956;5.888;2023-08-07T07:37:35;14.80;99.90
37642;DHT22;23486;51.956;5.888;2023-08-07T07:40:00;14.70;99.90
37642;DHT22;23486;51.956;5.888;2023-08-07T07:42:26;14.60;99.90
37642;DHT22;23486;51.956;5.888;2023-08-07T07:44:51;14.60;99.90
37642;DHT22;23486;51.956;5.888;2023-08-07T07:47:17;14.60;99.90
37642;DHT22;23486;51.956;5.888;2023-08-07T07:49:46;14.60;99.90
37642;DHT22;23486;51.956;5.888;2023-08-07T07:52:14;14.80;99.90
37642;DHT22;23486;51.956;5.888;2023-08-07T07:54:40;15.00;99.90
37642;DHT22;23486;51.956;5.888;2023-08-07T07:57:09;15.20;99.90
37642;DHT22;23486;51.956;5.888;2023-08-07T07:59:34;15.30;99.90
37642;DHT22;23486;51.956;5.888;2023-08-07T08:02:00;15.30;99.90
37642;DHT22;23486;51.956;5.888;2023-08-07T08:04:26;15.30;99.90
37642;DHT22;23486;51.956;5.888;2023-08-07T08:06:53;15.30;99.90
37642;DHT22;23486;51.956;5.888;2023-08-07T08:09:18;15.20;99.90
37642;DHT22;23486;51.956;5.888;2023-08-07T08:11:44;15.10;99.90
37642;DHT22;23486;51.956;5.888;2023-08-07T08:14:09;15.00;99.90
37642;DHT22;23486;51.956;5.888;2023-08-07T08:16:35;15.00;99.90
37642;DHT22;23486;51.956;5.888;2023-08-07T08:19:01;14.90;99.90
37642;DHT22;23486;51.956;5.888;2023-08-07T08:21:27;15.00;99.90
37642;DHT22;23486;51.956;5.888;2023-08-07T08:23:53;15.00;99.90
37642;DHT22;23486;51.956;5.888;2023-08-07T08:26:18;15.00;99.90
37642;DHT22;23486;51.956;5.888;2023-08-07T08:28:44;15.00;99.90
37642;DHT22;23486;51.956;5.888;2023-08-07T08:31:11;15.00;99.90
37642;DHT22;23486;51.956;5.888;2023-08-07T08:33:36;15.00;99.90
37642;DHT22;23486;51.956;5.888;2023-08-07T08:36:02;15.10;99.90
37642;DHT22;23486;51.956;5.888;2023-08-07T08:38:28;15.20;99.90
37642;DHT22;23486;51.956;5.888;2023-08-07T08:40:58;15.30;99.90
37642;DHT22;23486;51.956;5.888;2023-08-07T08:43:27;15.40;99.90
37642;DHT22;23486;51.956;5.888;2023-08-07T08:45:54;15.50;99.90
37642;DHT22;23486;51.956;5.888;2023-08-07T08:48:20;15.50;99.90
37642;DHT22;23486;51.956;5.888;2023-08-07T08:50:49;15.40;99.90
37642;DHT22;23486;51.956;5.888;2023-08-07T08:53:16;15.20;99.90
37642;DHT22;23486;51.956;5.888;2023-08-07T08:55:42;15.00;99.90
37642;DHT22;23486;51.956;5.888;2023-08-07T08:58:15;14.90;99.90
37642;DHT22;23486;51.956;5.888;2023-08-07T09:00:41;14.80;99.90
37642;DHT22;23486;51.956;5.888;2023-08-07T09:03:08;14.90;99.90
37642;DHT22;23486;51.956;5.888;2023-08-07T09:05:33;15.00;99.90
37642;DHT22;23486;51.956;5.888;2023-08-07T09:08:00;15.20;99.90
37642;DHT22;23486;51.956;5.888;2023-08-07T09:10:26;15.30;99.90
37642;DHT22;23486;51.956;5.888;2023-08-07T09:13:03;15.40;99.90
37642;DHT22;23486;51.956;5.888;2023-08-07T09:15:34;15.40;99.90
37642;DHT22;23486;51.956;5.888;2023-08-07T09:18:02;15.30;99.90
37642;DHT22;23486;51.956;5.888;2023-08-07T09:20:30;15.30;99.90
37642;DHT22;23486;51.956;5.888;2023-08-07T09:22:56;15.20;99.90
37642;DHT22;23486;51.956;5.888;2023-08-07T09:25:32;15.30;99.90
37642;DHT22;23486;51.956;5.888;2023-08-07T09:28:01;15.40;99.90
37642;DHT22;23486;51.956;5.888;2023-08-07T09:30:30;15.50;99.90
37642;DHT22;23486;51.956;5.888;2023-08-07T09:33:00;15.60;99.90
37642;DHT22;23486;51.956;5.888;2023-08-07T09:35:26;15.80;99.90
37642;DHT22;23486;51.956;5.888;2023-08-07T09:37:52;16.00;99.90
37642;DHT22;23486;51.956;5.888;2023-08-07T09:40:18;16.20;99.90
37642;DHT22;23486;51.956;5.888;2023-08-07T09:42:44;16.20;99.90
37642;DHT22;23486;51.956;5.888;2023-08-07T09:45:23;16.10;99.90
37642;DHT22;23486;51.956;5.888;2023-08-07T09:50:25;16.10;99.90
37642;DHT22;23486;51.956;5.888;2023-08-07T09:52:51;16.20;99.90
37642;DHT22;23486;51.956;5.888;2023-08-07T09:55:17;16.30;99.90
37642;DHT22;23486;51.956;5.888;2023-08-07T09:57:45;16.20;99.90
37642;DHT22;23486;51.956;5.888;2023-08-07T10:00:14;16.20;99.90
37642;DHT22;23486;51.956;5.888;2023-08-07T10:02:41;16.10;99.90
37642;DHT22;23486;51.956;5.888;2023-08-07T10:05:10;16.10;99.90
37642;DHT22;23486;51.956;5.888;2023-08-07T10:07:40;16.10;99.90
37642;DHT22;23486;51.956;5.888;2023-08-07T10:10:07;16.30;99.90
37642;DHT22;23486;51.956;5.888;2023-08-07T10:12:33;16.30;99.90
37642;DHT22;23486;51.956;5.888;2023-08-07T10:15:00;16.50;99.90
37642;DHT22;23486;51.956;5.888;2023-08-07T10:17:27;16.60;99.90
37642;DHT22;23486;51.956;5.888;2023-08-07T10:19:53;16.90;99.90
37642;DHT22;23486;51.956;5.888;2023-08-07T10:22:19;17.10;99.90
37642;DHT22;23486;51.956;5.888;2023-08-07T10:24:49;17.10;99.90
37642;DHT22;23486;51.956;5.888;2023-08-07T10:27:20;17.00;99.90
37642;DHT22;23486;51.956;5.888;2023-08-07T10:29:47;17.10;99.90
37642;DHT22;23486;51.956;5.888;2023-08-07T10:32:15;17.20;99.90
37642;DHT22;23486;51.956;5.888;2023-08-07T10:34:47;17.20;99.90
37642;DHT22;23486;51.956;5.888;2023-08-07T10:37:42;17.20;99.90
37642;DHT22;23486;51.956;5.888;2023-08-07T10:40:09;17.20;99.90
37642;DHT22;23486;51.956;5.888;2023-08-07T10:45:20;17.10;99.90
37642;DHT22;23486;51.956;5.888;2023-08-07T10:47:58;17.00;99.90
37642;DHT22;23486;51.956;5.888;2023-08-07T10:50:33;17.00;99.90
37642;DHT22;23486;51.956;5.888;2023-08-07T10:53:00;17.00;99.90
37642;DHT22;23486;51.956;5.888;2023-08-07T10:55:26;17.10;99.90
37642;DHT22;23486;51.956;5.888;2023-08-07T10:57:53;17.20;99.90
37642;DHT22;23486;51.956;5.888;2023-08-07T11:00:26;17.20;99.90
37642;DHT22;23486;51.956;5.888;2023-08-07T11:02:53;17.20;99.90
37642;DHT22;23486;51.956;5.888;2023-08-07T11:05:20;17.20;99.90
37642;DHT22;23486;51.956;5.888;2023-08-07T11:07:45;17.20;99.90
37642;DHT22;23486;51.956;5.888;2023-08-07T11:10:13;17.20;99.90
37642;DHT22;23486;51.956;5.888;2023-08-07T11:12:42;17.10;99.90
37642;DHT22;23486;51.956;5.888;2023-08-07T11:15:12;17.20;99.90
37642;DHT22;23486;51.956;5.888;2023-08-07T11:17:38;17.20;99.90
37642;DHT22;23486;51.956;5.888;2023-08-07T11:20:07;17.20;99.90
37642;DHT22;23486;51.956;5.888;2023-08-07T11:22:32;17.40;99.90
37642;DHT22;23486;51.956;5.888;2023-08-07T11:24:58;17.60;99.90
37642;DHT22;23486;51.956;5.888;2023-08-07T11:27:23;17.60;99.90
37642;DHT22;23486;51.956;5.888;2023-08-07T11:29:49;17.80;99.90
37642;DHT22;23486;51.956;5.888;2023-08-07T11:32:15;18.00;99.90
37642;DHT22;23486;51.956;5.888;2023-08-07T11:34:48;18.20;99.90
37642;DHT22;23486;51.956;5.888;2023-08-07T11:37:16;18.20;99.90
37642;DHT22;23486;51.956;5.888;2023-08-07T11:39:45;18.20;99.90
37642;DHT22;23486;51.956;5.888;2023-08-07T11:42:11;18.20;99.90
37642;DHT22;23486;51.956;5.888;2023-08-07T11:44:37;18.20;99.90
37642;DHT22;23486;51.956;5.888;2023-08-07T11:47:03;18.20;99.90
37642;DHT22;23486;51.956;5.888;2023-08-07T11:49:28;18.40;99.90
37642;DHT22;23486;51.956;5.888;2023-08-07T11:51:54;18.50;99.90
37642;DHT22;23486;51.956;5.888;2023-08-07T11:54:20;18.60;99.90
37642;DHT22;23486;51.956;5.888;2023-08-07T11:56:46;18.40;99.90
37642;DHT22;23486;51.956;5.888;2023-08-07T11:59:11;18.20;99.90
37642;DHT22;23486;51.956;5.888;2023-08-07T12:01:38;18.00;99.90
37642;DHT22;23486;51.956;5.888;2023-08-07T12:06:32;18.00;99.90
37642;DHT22;23486;51.956;5.888;2023-08-07T12:08:57;18.10;99.90
37642;DHT22;23486;51.956;5.888;2023-08-07T12:11:24;18.20;99.90
37642;DHT22;23486;51.956;5.888;2023-08-07T12:13:50;18.30;99.90
37642;DHT22;23486;51.956;5.888;2023-08-07T12:16:17;18.40;99.90
37642;DHT22;23486;51.956;5.888;2023-08-07T12:18:49;18.50;99.90
37642;DHT22;23486;51.956;5.888;2023-08-07T12:21:17;18.50;99.90
37642;DHT22;23486;51.956;5.888;2023-08-07T12:23:44;18.50;99.90
37642;DHT22;23486;51.956;5.888;2023-08-07T12:26:13;18.60;99.90
37642;DHT22;23486;51.956;5.888;2023-08-07T12:28:38;18.70;99.90
37642;DHT22;23486;51.956;5.888;2023-08-07T12:31:04;18.80;99.90
37642;DHT22;23486;51.956;5.888;2023-08-07T12:33:30;19.00;99.90
37642;DHT22;23486;51.956;5.888;2023-08-07T12:35:56;19.10;99.90
37642;DHT22;23486;51.956;5.888;2023-08-07T12:38:22;19.20;99.90
37642;DHT22;23486;51.956;5.888;2023-08-07T12:40:48;19.20;99.90
37642;DHT22;23486;51.956;5.888;2023-08-07T12:43:15;19.20;99.90
37642;DHT22;23486;51.956;5.888;2023-08-07T12:45:40;19.40;99.90
37642;DHT22;23486;51.956;5.888;2023-08-07T12:48:06;19.40;99.90
37642;DHT22;23486;51.956;5.888;2023-08-07T12:50:32;19.30;99.90
37642;DHT22;23486;51.956;5.888;2023-08-07T12:52:58;19.30;99.90
37642;DHT22;23486;51.956;5.888;2023-08-07T12:55:24;19.30;99.90
37642;DHT22;23486;51.956;5.888;2023-08-07T12:57:50;19.20;99.90
37642;DHT22;23486;51.956;5.888;2023-08-07T13:00:17;18.90;99.90
37642;DHT22;23486;51.956;5.888;2023-08-07T13:02:45;18.70;99.90
37642;DHT22;23486;51.956;5.888;2023-08-07T13:05:11;18.40;99.90
37642;DHT22;23486;51.956;5.888;2023-08-07T13:07:41;18.30;99.90
37642;DHT22;23486;51.956;5.888;2023-08-07T13:10:08;18.50;99.90
37642;DHT22;23486;51.956;5.888;2023-08-07T13:12:39;18.80;99.90
37642;DHT22;23486;51.956;5.888;2023-08-07T13:15:07;19.10;99.90
37642;DHT22;23486;51.956;5.888;2023-08-07T13:17:35;19.30;99.90
37642;DHT22;23486;51.956;5.888;2023-08-07T13:20:02;19.50;99.90
37642;DHT22;23486;51.956;5.888;2023-08-07T13:22:39;19.70;99.90
37642;DHT22;23486;51.956;5.888;2023-08-07T13:25:06;19.80;99.90
37642;DHT22;23486;51.956;5.888;2023-08-07T13:27:33;19.80;99.90
37642;DHT22;23486;51.956;5.888;2023-08-07T13:29:58;19.80;99.90
37642;DHT22;23486;51.956;5.888;2023-08-07T13:32:25;19.70;99.90
37642;DHT22;23486;51.956;5.888;2023-08-07T13:34:51;19.80;99.90
37642;DHT22;23486;51.956;5.888;2023-08-07T13:37:16;19.70;99.90
37642;DHT22;23486;51.956;5.888;2023-08-07T13:39:42;19.80;99.90
37642;DHT22;23486;51.956;5.888;2023-08-07T13:42:08;19.90;99.90
37642;DHT22;23486;51.956;5.888;2023-08-07T13:44:34;19.90;99.90
37642;DHT22;23486;51.956;5.888;2023-08-07T13:46:59;20.00;99.90
37642;DHT22;23486;51.956;5.888;2023-08-07T13:49:25;19.90;99.90
37642;DHT22;23486;51.956;5.888;2023-08-07T13:51:50;19.70;99.90
37642;DHT22;23486;51.956;5.888;2023-08-07T13:54:16;19.50;99.90
37642;DHT22;23486;51.956;5.888;2023-08-07T13:56:42;19.40;99.90
37642;DHT22;23486;51.956;5.888;2023-08-07T13:59:08;19.40;99.90
37642;DHT22;23486;51.956;5.888;2023-08-07T14:01:34;19.50;99.90
37642;DHT22;23486;51.956;5.888;2023-08-07T14:04:01;19.90;99.90
37642;DHT22;23486;51.956;5.888;2023-08-07T14:06:27;20.20;99.90
37642;DHT22;23486;51.956;5.888;2023-08-07T14:08:52;20.30;99.90
37642;DHT22;23486;51.956;5.888;2023-08-07T14:11:18;20.50;99.90
37642;DHT22;23486;51.956;5.888;2023-08-07T14:13:45;20.80;99.90
37642;DHT22;23486;51.956;5.888;2023-08-07T14:16:12;20.90;99.80
37642;DHT22;23486;51.956;5.888;2023-08-07T14:18:37;20.90;97.10
37642;DHT22;23486;51.956;5.888;2023-08-07T14:21:03;20.90;97.80
37642;DHT22;23486;51.956;5.888;2023-08-07T14:23:29;20.70;95.20
37642;DHT22;23486;51.956;5.888;2023-08-07T14:25:54;20.40;96.40
37642;DHT22;23486;51.956;5.888;2023-08-07T14:28:20;20.20;96.70
37642;DHT22;23486;51.956;5.888;2023-08-07T14:30:47;20.20;97.30
37642;DHT22;23486;51.956;5.888;2023-08-07T14:33:12;20.30;96.90
37642;DHT22;23486;51.956;5.888;2023-08-07T14:35:38;20.40;97.30
37642;DHT22;23486;51.956;5.888;2023-08-07T14:38:04;20.60;97.30
37642;DHT22;23486;51.956;5.888;2023-08-07T14:40:29;20.30;94.10
37642;DHT22;23486;51.956;5.888;2023-08-07T14:42:55;20.20;94.80
37642;DHT22;23486;51.956;5.888;2023-08-07T14:45:21;20.10;95.60
37642;DHT22;23486;51.956;5.888;2023-08-07T14:47:49;19.90;94.80
37642;DHT22;23486;51.956;5.888;2023-08-07T14:50:14;19.80;95.10
37642;DHT22;23486;51.956;5.888;2023-08-07T14:52:42;19.90;94.40
37642;DHT22;23486;51.956;5.888;2023-08-07T14:55:07;20.10;94.30
37642;DHT22;23486;51.956;5.888;2023-08-07T14:57:33;20.40;93.80
37642;DHT22;23486;51.956;5.888;2023-08-07T14:59:59;20.60;92.20
37642;DHT22;23486;51.956;5.888;2023-08-07T15:02:24;20.50;92.00
37642;DHT22;23486;51.956;5.888;2023-08-07T15:04:50;20.50;92.00
37642;DHT22;23486;51.956;5.888;2023-08-07T15:07:16;20.40;92.60
37642;DHT22;23486;51.956;5.888;2023-08-07T15:09:41;20.40;92.30
37642;DHT22;23486;51.956;5.888;2023-08-07T15:12:07;20.60;92.10
37642;DHT22;23486;51.956;5.888;2023-08-07T15:14:33;20.80;93.20
37642;DHT22;23486;51.956;5.888;2023-08-07T15:16:59;21.10;92.60
37642;DHT22;23486;51.956;5.888;2023-08-07T15:19:24;21.50;93.50
37642;DHT22;23486;51.956;5.888;2023-08-07T15:21:51;21.70;91.80
37642;DHT22;23486;51.956;5.888;2023-08-07T15:24:16;21.70;91.70
37642;DHT22;23486;51.956;5.888;2023-08-07T15:26:42;21.90;92.40
37642;DHT22;23486;51.956;5.888;2023-08-07T15:29:08;21.80;92.70
37642;DHT22;23486;51.956;5.888;2023-08-07T15:31:33;21.70;92.90
37642;DHT22;23486;51.956;5.888;2023-08-07T15:33:59;21.50;92.20
37642;DHT22;23486;51.956;5.888;2023-08-07T15:36:25;21.40;93.00
37642;DHT22;23486;51.956;5.888;2023-08-07T15:38:51;21.20;91.20
37642;DHT22;23486;51.956;5.888;2023-08-07T15:41:17;20.80;90.60
37642;DHT22;23486;51.956;5.888;2023-08-07T15:43:43;20.50;91.30
37642;DHT22;23486;51.956;5.888;2023-08-07T15:46:08;20.40;91.60